sensor_id;sensor_type;location;lat;lon;timestamp;P1;durP1;ratioP1;P2;durP2;ratioP2
6185;SDS011;3126;52.738;8.316;2023-02-28T00:02:52;6.88;;;4.47;;
6185;SDS011;3126;52.738;8.316;2023-02-28T00:07:53;8.70;;;5.43;;
6185;SDS011;3126;52.738;8.316;2023-02-28T00:12:55;6.43;;;4.60;;
6185;SDS011;3126;52.738;8.316;2023-02-28T00:17:56;8.20;;;5.07;;
6185;SDS011;3126;52.738;8.316;2023-02-28T00:22:57;7.90;;;5.32;;
6185;SDS011;3126;52.738;8.316;2023-02-28T00:27:58;9.93;;;5.47;;
6185;SDS011;3126;52.738;8.316;2023-02-28T00:32:59;11.55;;;5.28;;
6185;SDS011;3126;52.738;8.316;2023-02-28T00:38:00;9.50;;;6.07;;
6185;SDS011;3126;52.738;8.316;2023-02-28T00:43:02;7.85;;;5.75;;
6185;SDS011;3126;52.738;8.316;2023-02-28T00:48:04;9.98;;;5.57;;
6185;SDS011;3126;52.738;8.316;2023-02-28T00:53:05;9.88;;;6.03;;
6185;SDS011;3126;52.738;8.316;2023-02-28T00:58:05;7.90;;;5.35;;
6185;SDS011;3126;52.738;8.316;2023-02-28T01:03:06;8.68;;;5.25;;
6185;SDS011;3126;52.738;8.316;2023-02-28T01:08:07;7.93;;;5.68;;
6185;SDS011;3126;52.738;8.316;2023-02-28T01:13:08;8.73;;;5.35;;
6185;SDS011;3126;52.738;8.316;2023-02-28T01:18:09;6.35;;;5.18;;
6185;SDS011;3126;52.738;8.316;2023-02-28T01:23:10;12.02;;;6.00;;
6185;SDS011;3126;52.738;8.316;2023-02-28T01:28:11;11.77;;;5.25;;
6185;SDS011;3126;52.738;8.316;2023-02-28T01:33:12;10.60;;;5.75;;
6185;SDS011;3126;52.738;8.316;2023-02-28T01:38:14;9.90;;;6.35;;
6185;SDS011;3126;52.738;8.316;2023-02-28T01:43:23;9.10;;;6.28;;
6185;SDS011;3126;52.738;8.316;2023-02-28T01:48:28;8.07;;;5.78;;
6185;SDS011;3126;52.738;8.316;2023-02-28T01:53:38;7.50;;;6.13;;
6185;SDS011;3126;52.738;8.316;2023-02-28T01:58:39;11.65;;;6.43;;
6185;SDS011;3126;52.738;8.316;2023-02-28T02:03:41;8.65;;;6.18;;
6185;SDS011;3126;52.738;8.316;2023-02-28T02:08:42;8.77;;;5.78;;
6185;SDS011;3126;52.738;8.316;2023-02-28T02:29:31;9.48;;;5.90;;
6185;SDS011;3126;52.738;8.316;2023-02-28T02:44:40;10.38;;;6.55;;
6185;SDS011;3126;52.738;8.316;2023-02-28T02:49:46;8.75;;;6.15;;
6185;SDS011;3126;52.738;8.316;2023-02-28T02:54:48;10.80;;;5.70;;
6185;SDS011;3126;52.738;8.316;2023-02-28T02:59:53;9.15;;;5.85;;
6185;SDS011;3126;52.738;8.316;2023-02-28T03:04:57;11.10;;;6.15;;
6185;SDS011;3126;52.738;8.316;2023-02-28T03:10:00;7.85;;;6.00;;
6185;SDS011;3126;52.738;8.316;2023-02-28T03:15:17;9.82;;;5.60;;
6185;SDS011;3126;52.738;8.316;2023-02-28T03:30:39;8.05;;;6.20;;
6185;SDS011;3126;52.738;8.316;2023-02-28T03:35:47;9.10;;;5.90;;
6185;SDS011;3126;52.738;8.316;2023-02-28T03:40:51;9.50;;;6.03;;
6185;SDS011;3126;52.738;8.316;2023-02-28T03:45:55;9.70;;;6.63;;
6185;SDS011;3126;52.738;8.316;2023-02-28T03:50:57;9.85;;;6.35;;
6185;SDS011;3126;52.738;8.316;2023-02-28T03:56:00;9.27;;;5.60;;
6185;SDS011;3126;52.738;8.316;2023-02-28T04:01:14;10.57;;;6.03;;
6185;SDS011;3126;52.738;8.316;2023-02-28T04:06:20;8.73;;;6.63;;
6185;SDS011;3126;52.738;8.316;2023-02-28T04:11:30;10.98;;;6.35;;
6185;SDS011;3126;52.738;8.316;2023-02-28T04:16:35;8.77;;;6.30;;
6185;SDS011;3126;52.738;8.316;2023-02-28T04:21:40;7.63;;;5.35;;
6185;SDS011;3126;52.738;8.316;2023-02-28T04:26:43;7.47;;;6.07;;
6185;SDS011;3126;52.738;8.316;2023-02-28T04:31:44;9.43;;;6.40;;
6185;SDS011;3126;52.738;8.316;2023-02-28T04:36:46;9.55;;;6.57;;
6185;SDS011;3126;52.738;8.316;2023-02-28T04:41:49;9.05;;;6.50;;
6185;SDS011;3126;52.738;8.316;2023-02-28T04:46:50;10.10;;;6.50;;
6185;SDS011;3126;52.738;8.316;2023-02-28T04:51:51;8.07;;;5.55;;
6185;SDS011;3126;52.738;8.316;2023-02-28T04:56:52;7.63;;;5.60;;
6185;SDS011;3126;52.738;8.316;2023-02-28T05:01:54;10.32;;;6.50;;
6185;SDS011;3126;52.738;8.316;2023-02-28T05:06:55;9.18;;;6.45;;
6185;SDS011;3126;52.738;8.316;2023-02-28T05:11:56;6.85;;;5.78;;
6185;SDS011;3126;52.738;8.316;2023-02-28T05:16:58;8.55;;;6.13;;
6185;SDS011;3126;52.738;8.316;2023-02-28T05:21:59;8.80;;;6.07;;
6185;SDS011;3126;52.738;8.316;2023-02-28T05:27:00;9.15;;;5.63;;
6185;SDS011;3126;52.738;8.316;2023-02-28T05:32:01;10.25;;;7.43;;
6185;SDS011;3126;52.738;8.316;2023-02-28T05:37:02;10.57;;;6.10;;
6185;SDS011;3126;52.738;8.316;2023-02-28T05:42:03;10.98;;;6.22;;
6185;SDS011;3126;52.738;8.316;2023-02-28T05:47:04;8.50;;;6.35;;
6185;SDS011;3126;52.738;8.316;2023-02-28T05:52:04;10.18;;;6.20;;
6185;SDS011;3126;52.738;8.316;2023-02-28T05:57:05;9.25;;;7.05;;
6185;SDS011;3126;52.738;8.316;2023-02-28T06:02:11;10.55;;;6.97;;
6185;SDS011;3126;52.738;8.316;2023-02-28T06:07:12;9.82;;;8.27;;
6185;SDS011;3126;52.738;8.316;2023-02-28T06:12:13;9.77;;;6.88;;
6185;SDS011;3126;52.738;8.316;2023-02-28T06:17:14;11.45;;;7.00;;
6185;SDS011;3126;52.738;8.316;2023-02-28T06:22:15;10.25;;;7.60;;
6185;SDS011;3126;52.738;8.316;2023-02-28T06:27:16;12.95;;;8.65;;
6185;SDS011;3126;52.738;8.316;2023-02-28T06:32:17;13.90;;;8.55;;
6185;SDS011;3126;52.738;8.316;2023-02-28T06:37:18;12.88;;;8.05;;
6185;SDS011;3126;52.738;8.316;2023-02-28T06:42:20;14.73;;;10.00;;
6185;SDS011;3126;52.738;8.316;2023-02-28T06:47:21;10.60;;;7.47;;
6185;SDS011;3126;52.738;8.316;2023-02-28T06:52:22;12.07;;;8.27;;
6185;SDS011;3126;52.738;8.316;2023-02-28T06:57:23;10.15;;;7.55;;
6185;SDS011;3126;52.738;8.316;2023-02-28T07:02:25;10.38;;;7.07;;
6185;SDS011;3126;52.738;8.316;2023-02-28T07:07:26;9.63;;;6.40;;
6185;SDS011;3126;52.738;8.316;2023-02-28T07:12:27;11.38;;;6.93;;
6185;SDS011;3126;52.738;8.316;2023-02-28T07:17:28;10.43;;;7.60;;
6185;SDS011;3126;52.738;8.316;2023-02-28T07:22:29;12.98;;;8.57;;
6185;SDS011;3126;52.738;8.316;2023-02-28T07:27:30;12.27;;;7.90;;
6185;SDS011;3126;52.738;8.316;2023-02-28T07:32:31;11.88;;;8.15;;
6185;SDS011;3126;52.738;8.316;2023-02-28T07:37:33;10.93;;;7.75;;
6185;SDS011;3126;52.738;8.316;2023-02-28T07:42:36;15.07;;;8.05;;
6185;SDS011;3126;52.738;8.316;2023-02-28T07:47:38;9.40;;;7.35;;
6185;SDS011;3126;52.738;8.316;2023-02-28T07:52:39;9.80;;;7.32;;
6185;SDS011;3126;52.738;8.316;2023-02-28T07:57:40;9.88;;;7.05;;
6185;SDS011;3126;52.738;8.316;2023-02-28T08:02:41;10.18;;;7.70;;
6185;SDS011;3126;52.738;8.316;2023-02-28T08:07:42;9.85;;;7.35;;
6185;SDS011;3126;52.738;8.316;2023-02-28T08:12:43;9.63;;;6.53;;
6185;SDS011;3126;52.738;8.316;2023-02-28T08:17:44;9.55;;;6.03;;
6185;SDS011;3126;52.738;8.316;2023-02-28T08:22:46;10.30;;;6.40;;
6185;SDS011;3126;52.738;8.316;2023-02-28T08:27:46;8.02;;;5.78;;
6185;SDS011;3126;52.738;8.316;2023-02-28T08:32:48;9.88;;;5.35;;
6185;SDS011;3126;52.738;8.316;2023-02-28T08:37:49;7.03;;;5.63;;
6185;SDS011;3126;52.738;8.316;2023-02-28T08:42:50;8.10;;;5.63;;
6185;SDS011;3126;52.738;8.316;2023-02-28T08:47:51;6.78;;;5.50;;
6185;SDS011;3126;52.738;8.316;2023-02-28T08:57:56;5.97;;;3.97;;
6185;SDS011;3126;52.738;8.316;2023-02-28T09:02:58;5.57;;;4.25;;
6185;SDS011;3126;52.738;8.316;2023-02-28T09:07:59;3.42;;;2.88;;
6185;SDS011;3126;52.738;8.316;2023-02-28T09:13:00;3.97;;;2.80;;
6185;SDS011;3126;52.738;8.316;2023-02-28T09:18:01;1.80;;;1.70;;
6185;SDS011;3126;52.738;8.316;2023-02-28T09:23:02;2.55;;;1.80;;
6185;SDS011;3126;52.738;8.316;2023-02-28T09:28:03;2.67;;;1.85;;
6185;SDS011;3126;52.738;8.316;2023-02-28T09:33:04;2.33;;;1.55;;
6185;SDS011;3126;52.738;8.316;2023-02-28T09:38:05;1.90;;;1.38;;
6185;SDS011;3126;52.738;8.316;2023-02-28T09:43:09;1.42;;;1.33;;
6185;SDS011;3126;52.738;8.316;2023-02-28T09:48:15;1.30;;;1.30;;
6185;SDS011;3126;52.738;8.316;2023-02-28T09:53:26;0.95;;;0.95;;
6185;SDS011;3126;52.738;8.316;2023-02-28T10:08:45;1.08;;;0.98;;
6185;SDS011;3126;52.738;8.316;2023-02-28T10:18:56;2.63;;;1.33;;
6185;SDS011;3126;52.738;8.316;2023-02-28T10:24:43;2.70;;;1.70;;
6185;SDS011;3126;52.738;8.316;2023-02-28T10:29:19;1.02;;;0.90;;
6185;SDS011;3126;52.738;8.316;2023-02-28T10:34:20;1.67;;;1.42;;
6185;SDS011;3126;52.738;8.316;2023-02-28T10:39:40;1.67;;;1.10;;
6185;SDS011;3126;52.738;8.316;2023-02-28T10:44:42;1.92;;;1.17;;
6185;SDS011;3126;52.738;8.316;2023-02-28T10:49:49;0.98;;;0.95;;
6185;SDS011;3126;52.738;8.316;2023-02-28T10:54:52;1.13;;;0.90;;
6185;SDS011;3126;52.738;8.316;2023-02-28T11:10:22;2.47;;;1.00;;
6185;SDS011;3126;52.738;8.316;2023-02-28T11:15:34;3.00;;;1.20;;
6185;SDS011;3126;52.738;8.316;2023-02-28T11:20:35;1.30;;;1.05;;
6185;SDS011;3126;52.738;8.316;2023-02-28T11:25:37;1.60;;;1.50;;
6185;SDS011;3126;52.738;8.316;2023-02-28T11:30:39;1.10;;;1.00;;
6185;SDS011;3126;52.738;8.316;2023-02-28T11:35:40;0.95;;;0.95;;
6185;SDS011;3126;52.738;8.316;2023-02-28T11:56:06;1.27;;;1.17;;
6185;SDS011;3126;52.738;8.316;2023-02-28T12:22:27;1.27;;;1.17;;
6185;SDS011;3126;52.738;8.316;2023-02-28T12:27:30;1.42;;;1.23;;
6185;SDS011;3126;52.738;8.316;2023-02-28T12:32:40;1.25;;;1.08;;
6185;SDS011;3126;52.738;8.316;2023-02-28T12:37:46;2.10;;;1.42;;
6185;SDS011;3126;52.738;8.316;2023-02-28T12:43:02;1.75;;;1.10;;
6185;SDS011;3126;52.738;8.316;2023-02-28T12:48:05;1.00;;;0.90;;
6185;SDS011;3126;52.738;8.316;2023-02-28T12:58:20;2.58;;;1.38;;
6185;SDS011;3126;52.738;8.316;2023-02-28T13:03:34;1.65;;;1.50;;
6185;SDS011;3126;52.738;8.316;2023-02-28T13:09:01;0.80;;;0.80;;
6185;SDS011;3126;52.738;8.316;2023-02-28T13:14:01;2.45;;;1.50;;
6185;SDS011;3126;52.738;8.316;2023-02-28T13:19:09;1.35;;;1.25;;
6185;SDS011;3126;52.738;8.316;2023-02-28T13:24:11;0.88;;;0.88;;
6185;SDS011;3126;52.738;8.316;2023-02-28T13:29:20;1.10;;;1.10;;
6185;SDS011;3126;52.738;8.316;2023-02-28T13:34:22;2.75;;;1.35;;
6185;SDS011;3126;52.738;8.316;2023-02-28T13:45:19;3.40;;;2.33;;
6185;SDS011;3126;52.738;8.316;2023-02-28T14:00:54;2.10;;;1.90;;
6185;SDS011;3126;52.738;8.316;2023-02-28T14:06:08;1.45;;;1.35;;
6185;SDS011;3126;52.738;8.316;2023-02-28T14:11:23;1.58;;;1.45;;
6185;SDS011;3126;52.738;8.316;2023-02-28T14:16:25;2.40;;;1.60;;
6185;SDS011;3126;52.738;8.316;2023-02-28T14:21:32;1.92;;;1.38;;
6185;SDS011;3126;52.738;8.316;2023-02-28T14:32:05;2.28;;;1.83;;
6185;SDS011;3126;52.738;8.316;2023-02-28T14:47:28;1.80;;;1.70;;
6185;SDS011;3126;52.738;8.316;2023-02-28T14:52:31;2.13;;;1.70;;
6185;SDS011;3126;52.738;8.316;2023-02-28T14:57:34;2.28;;;1.77;;
6185;SDS011;3126;52.738;8.316;2023-02-28T15:02:35;4.15;;;1.83;;
6185;SDS011;3126;52.738;8.316;2023-02-28T15:07:36;3.10;;;2.08;;
6185;SDS011;3126;52.738;8.316;2023-02-28T15:12:37;5.47;;;2.83;;
6185;SDS011;3126;52.738;8.316;2023-02-28T15:17:39;3.58;;;2.00;;
6185;SDS011;3126;52.738;8.316;2023-02-28T15:22:41;2.28;;;1.77;;
6185;SDS011;3126;52.738;8.316;2023-02-28T15:27:44;1.73;;;1.63;;
6185;SDS011;3126;52.738;8.316;2023-02-28T15:33:01;1.77;;;1.67;;
6185;SDS011;3126;52.738;8.316;2023-02-28T15:38:05;3.00;;;1.70;;
6185;SDS011;3126;52.738;8.316;2023-02-28T15:48:20;2.25;;;2.05;;
6185;SDS011;3126;52.738;8.316;2023-02-28T15:53:32;2.38;;;1.73;;
6185;SDS011;3126;52.738;8.316;2023-02-28T15:58:35;2.58;;;1.90;;
6185;SDS011;3126;52.738;8.316;2023-02-28T16:03:41;4.35;;;1.65;;
6185;SDS011;3126;52.738;8.316;2023-02-28T16:08:44;2.25;;;1.98;;
6185;SDS011;3126;52.738;8.316;2023-02-28T16:13:45;2.65;;;1.73;;
6185;SDS011;3126;52.738;8.316;2023-02-28T16:18:46;3.30;;;1.70;;
6185;SDS011;3126;52.738;8.316;2023-02-28T16:23:47;1.95;;;1.55;;
6185;SDS011;3126;52.738;8.316;2023-02-28T16:28:48;2.83;;;1.48;;
6185;SDS011;3126;52.738;8.316;2023-02-28T16:33:50;1.50;;;1.40;;
6185;SDS011;3126;52.738;8.316;2023-02-28T16:38:51;2.50;;;1.58;;
6185;SDS011;3126;52.738;8.316;2023-02-28T16:43:53;2.45;;;1.83;;
6185;SDS011;3126;52.738;8.316;2023-02-28T16:48:58;2.55;;;1.75;;
6185;SDS011;3126;52.738;8.316;2023-02-28T16:53:59;5.20;;;2.00;;
6185;SDS011;3126;52.738;8.316;2023-02-28T16:59:01;11.20;;;5.45;;
6185;SDS011;3126;52.738;8.316;2023-02-28T17:04:02;6.78;;;3.22;;
6185;SDS011;3126;52.738;8.316;2023-02-28T17:09:03;3.80;;;1.90;;
6185;SDS011;3126;52.738;8.316;2023-02-28T17:14:04;3.03;;;1.95;;
6185;SDS011;3126;52.738;8.316;2023-02-28T17:19:06;2.88;;;1.67;;
6185;SDS011;3126;52.738;8.316;2023-02-28T17:24:07;5.53;;;2.17;;
6185;SDS011;3126;52.738;8.316;2023-02-28T17:29:15;6.28;;;2.40;;
6185;SDS011;3126;52.738;8.316;2023-02-28T17:34:17;7.65;;;2.38;;
6185;SDS011;3126;52.738;8.316;2023-02-28T17:39:19;3.85;;;2.10;;
6185;SDS011;3126;52.738;8.316;2023-02-28T17:44:24;3.53;;;2.55;;
6185;SDS011;3126;52.738;8.316;2023-02-28T17:49:25;4.00;;;2.38;;
6185;SDS011;3126;52.738;8.316;2023-02-28T17:54:27;6.10;;;2.47;;
6185;SDS011;3126;52.738;8.316;2023-02-28T17:59:28;7.38;;;2.97;;
6185;SDS011;3126;52.738;8.316;2023-02-28T18:04:35;4.07;;;2.83;;
6185;SDS011;3126;52.738;8.316;2023-02-28T18:09:36;8.85;;;2.92;;
6185;SDS011;3126;52.738;8.316;2023-02-28T18:14:36;6.95;;;4.00;;
6185;SDS011;3126;52.738;8.316;2023-02-28T18:19:38;7.68;;;3.50;;
6185;SDS011;3126;52.738;8.316;2023-02-28T18:24:39;5.28;;;3.10;;
6185;SDS011;3126;52.738;8.316;2023-02-28T18:29:40;9.90;;;3.30;;
6185;SDS011;3126;52.738;8.316;2023-02-28T18:34:41;5.30;;;3.60;;
6185;SDS011;3126;52.738;8.316;2023-02-28T18:39:42;4.75;;;3.72;;
6185;SDS011;3126;52.738;8.316;2023-02-28T18:44:43;5.20;;;3.10;;
6185;SDS011;3126;52.738;8.316;2023-02-28T18:49:44;5.22;;;3.05;;
6185;SDS011;3126;52.738;8.316;2023-02-28T18:54:46;5.13;;;2.90;;
6185;SDS011;3126;52.738;8.316;2023-02-28T18:59:47;5.18;;;3.58;;
6185;SDS011;3126;52.738;8.316;2023-02-28T19:04:48;6.85;;;3.50;;
6185;SDS011;3126;52.738;8.316;2023-02-28T19:09:49;3.97;;;2.90;;
6185;SDS011;3126;52.738;8.316;2023-02-28T19:14:50;7.93;;;3.35;;
6185;SDS011;3126;52.738;8.316;2023-02-28T19:19:51;4.90;;;3.25;;
6185;SDS011;3126;52.738;8.316;2023-02-28T19:24:52;5.25;;;3.92;;
6185;SDS011;3126;52.738;8.316;2023-02-28T19:29:53;5.30;;;3.30;;
6185;SDS011;3126;52.738;8.316;2023-02-28T19:34:54;5.47;;;3.47;;
6185;SDS011;3126;52.738;8.316;2023-02-28T19:39:55;5.43;;;3.88;;
6185;SDS011;3126;52.738;8.316;2023-02-28T19:44:56;5.85;;;3.50;;
6185;SDS011;3126;52.738;8.316;2023-02-28T19:49:57;6.78;;;3.72;;
6185;SDS011;3126;52.738;8.316;2023-02-28T19:54:58;6.05;;;3.70;;
6185;SDS011;3126;52.738;8.316;2023-02-28T20:00:00;4.60;;;4.13;;
6185;SDS011;3126;52.738;8.316;2023-02-28T20:05:01;5.10;;;3.70;;
6185;SDS011;3126;52.738;8.316;2023-02-28T20:10:02;5.18;;;3.75;;
6185;SDS011;3126;52.738;8.316;2023-02-28T20:15:03;5.80;;;3.80;;
6185;SDS011;3126;52.738;8.316;2023-02-28T20:20:04;7.63;;;5.00;;
6185;SDS011;3126;52.738;8.316;2023-02-28T20:25:08;6.88;;;3.90;;
6185;SDS011;3126;52.738;8.316;2023-02-28T20:30:10;7.97;;;3.80;;
6185;SDS011;3126;52.738;8.316;2023-02-28T20:35:12;9.27;;;4.00;;
6185;SDS011;3126;52.738;8.316;2023-02-28T20:40:13;13.98;;;4.97;;
6185;SDS011;3126;52.738;8.316;2023-02-28T20:45:14;13.57;;;4.55;;
6185;SDS011;3126;52.738;8.316;2023-02-28T20:50:15;9.38;;;4.05;;
6185;SDS011;3126;52.738;8.316;2023-02-28T20:55:17;8.70;;;4.18;;
6185;SDS011;3126;52.738;8.316;2023-02-28T21:00:18;6.15;;;4.20;;
6185;SDS011;3126;52.738;8.316;2023-02-28T21:05:19;9.90;;;4.85;;
6185;SDS011;3126;52.738;8.316;2023-02-28T21:10:20;9.73;;;4.63;;
6185;SDS011;3126;52.738;8.316;2023-02-28T21:15:21;6.65;;;5.25;;
6185;SDS011;3126;52.738;8.316;2023-02-28T21:20:22;11.07;;;5.05;;
6185;SDS011;3126;52.738;8.316;2023-02-28T21:25:23;10.82;;;5.60;;
6185;SDS011;3126;52.738;8.316;2023-02-28T21:30:24;8.00;;;5.57;;
6185;SDS011;3126;52.738;8.316;2023-02-28T21:35:25;12.85;;;5.78;;
6185;SDS011;3126;52.738;8.316;2023-02-28T21:40:26;8.52;;;5.38;;
6185;SDS011;3126;52.738;8.316;2023-02-28T21:45:27;10.93;;;7.15;;
6185;SDS011;3126;52.738;8.316;2023-02-28T21:50:29;8.05;;;5.70;;
6185;SDS011;3126;52.738;8.316;2023-02-28T21:55:32;8.95;;;5.63;;
6185;SDS011;3126;52.738;8.316;2023-02-28T22:00:33;12.20;;;6.75;;
6185;SDS011;3126;52.738;8.316;2023-02-28T22:05:35;11.68;;;6.63;;
6185;SDS011;3126;52.738;8.316;2023-02-28T22:10:36;7.68;;;6.88;;
6185;SDS011;3126;52.738;8.316;2023-02-28T22:15:37;8.52;;;6.93;;
6185;SDS011;3126;52.738;8.316;2023-02-28T22:20:38;11.70;;;6.40;;
6185;SDS011;3126;52.738;8.316;2023-02-28T22:25:38;11.85;;;7.13;;
6185;SDS011;3126;52.738;8.316;2023-02-28T22:30:39;12.93;;;7.22;;
6185;SDS011;3126;52.738;8.316;2023-02-28T22:35:40;12.13;;;7.07;;
6185;SDS011;3126;52.738;8.316;2023-02-28T22:40:41;12.50;;;8.32;;
6185;SDS011;3126;52.738;8.316;2023-02-28T22:45:42;13.45;;;9.32;;
6185;SDS011;3126;52.738;8.316;2023-02-28T22:50:43;12.65;;;7.78;;
6185;SDS011;3126;52.738;8.316;2023-02-28T22:55:44;15.10;;;8.50;;
6185;SDS011;3126;52.738;8.316;2023-02-28T23:00:53;10.98;;;8.15;;
6185;SDS011;3126;52.738;8.316;2023-02-28T23:05:54;10.73;;;7.28;;
6185;SDS011;3126;52.738;8.316;2023-02-28T23:10:56;13.57;;;8.18;;
6185;SDS011;3126;52.738;8.316;2023-02-28T23:15:57;12.20;;;7.10;;
6185;SDS011;3126;52.738;8.316;2023-02-28T23:20:58;12.43;;;7.32;;
6185;SDS011;3126;52.738;8.316;2023-02-28T23:25:59;14.35;;;7.97;;
6185;SDS011;3126;52.738;8.316;2023-02-28T23:31:00;13.93;;;8.20;;
6185;SDS011;3126;52.738;8.316;2023-02-28T23:36:10;17.30;;;7.93;;
6185;SDS011;3126;52.738;8.316;2023-02-28T23:41:12;12.82;;;8.05;;
6185;SDS011;3126;52.738;8.316;2023-02-28T23:46:13;13.25;;;8.65;;
6185;SDS011;3126;52.738;8.316;2023-02-28T23:51:16;13.57;;;7.72;;
6185;SDS011;3126;52.738;8.316;2023-02-28T23:56:18;13.55;;;6.53;;
